Time;durP1;ratioP1;P1;durP2;ratioP2;P2;SDS_P1;SDS_P2;PMS_P1;PMS_P2;Temp;Humidity;BMP_temperature;BMP_pressure;BME280_temperature;BME280_humidity;BME280_pressure;Samples;Min_cycle;Max_cycle;Signal;HPM_P1;HPM_P2
2022/08/03 00:02:20;;;;;;;4.07;3.65;;;;;;;19.00;83.72;99804.09;5040084;28;20025;-75
2022/08/03 00:04:46;;;;;;;3.72;3.40;;;;;;;18.93;83.77;99796.66;5040275;28;20047;-75
2022/08/03 00:07:11;;;;;;;5.28;3.88;;;;;;;18.90;84.07;99790.78;5041509;28;20457;-75
2022/08/03 00:09:37;;;;;;;5.93;4.13;;;;;;;18.93;84.83;99801.09;5039368;28;20731;-76
2022/08/03 00:12:02;;;;;;;4.18;3.47;;;;;;;18.89;85.31;99805.78;5041265;28;20500;-76
2022/08/03 00:14:28;;;;;;;4.88;3.25;;;;;;;18.83;86.69;99810.69;5040888;28;20388;-75
2022/08/03 00:16:53;;;;;;;4.80;3.50;;;;;;;18.72;87.01;99797.50;5036950;28;20443;-76
2022/08/03 00:19:18;;;;;;;4.22;3.60;;;;;;;18.72;87.66;99810.72;5031886;28;20022;-76
2022/08/03 00:21:44;;;;;;;4.50;3.65;;;;;;;18.63;87.68;99804.31;5031692;28;20029;-76
2022/08/03 00:24:09;;;;;;;5.20;4.10;;;;;;;18.66;87.74;99809.34;5031791;28;20026;-76
2022/08/03 00:26:35;;;;;;;5.65;3.90;;;;;;;18.61;87.57;99801.78;5031535;28;20064;-76
2022/08/03 00:29:00;;;;;;;5.00;4.00;;;;;;;18.50;88.09;99796.50;5031842;28;20030;-76
2022/08/03 00:31:25;;;;;;;6.63;3.92;;;;;;;18.51;88.28;99806.09;5031884;28;20053;-76
2022/08/03 00:33:50;;;;;;;4.45;3.67;;;;;;;18.44;88.58;99799.59;5031843;28;20037;-76
2022/08/03 00:36:16;;;;;;;5.72;4.40;;;;;;;18.41;88.57;99794.56;5021113;28;20030;-76
2022/08/03 00:38:41;;;;;;;7.05;4.15;;;;;;;18.47;88.61;99804.66;5031852;28;20043;-76
2022/08/03 00:41:06;;;;;;;5.60;4.25;;;;;;;18.39;89.12;99814.94;5031153;28;20104;-76
2022/08/03 00:43:32;;;;;;;4.85;4.30;;;;;;;18.33;89.74;99792.53;5033681;28;20113;-76
2022/08/03 00:45:57;;;;;;;5.22;4.40;;;;;;;18.38;89.35;99811.47;5035360;28;20057;-76
2022/08/03 00:48:24;;;;;;;6.57;4.32;;;;;;;18.34;89.36;99809.19;5035648;28;20033;-76
2022/08/03 00:50:49;;;;;;;4.65;4.05;;;;;;;18.29;89.12;99796.38;5035321;28;20033;-76
2022/08/03 00:53:15;;;;;;;5.13;4.25;;;;;;;18.31;88.96;99804.13;5035378;28;20029;-76
2022/08/03 00:55:41;;;;;;;6.07;4.13;;;;;;;18.32;88.99;99803.19;5035160;28;20416;-76
2022/08/03 00:58:07;;;;;;;5.72;4.05;;;;;;;18.27;89.53;99795.63;5035227;28;20095;-76
2022/08/03 01:00:37;;;;;;;5.05;4.03;;;;;;;18.34;89.31;99815.31;5035474;28;20094;-76
2022/08/03 01:03:03;;;;;;;6.07;4.03;;;;;;;18.29;89.37;99804.28;5035251;28;20461;-76
2022/08/03 01:05:29;;;;;;;5.75;4.25;;;;;;;18.25;89.67;99796.72;5035306;28;20058;-76
2022/08/03 01:08:04;;;;;;;4.68;4.07;;;;;;;18.31;89.58;99809.41;5035125;28;20026;-76
2022/08/03 01:10:37;;;;;;;4.65;4.13;;;;;;;18.29;89.88;99804.28;5035154;28;20028;-76
2022/08/03 01:13:23;;;;;;;4.75;4.10;;;;;;;18.25;89.91;99807.25;5035277;28;20556;-75
2022/08/03 01:16:04;;;;;;;7.90;3.92;;;;;;;18.29;89.97;99808.72;5034738;28;20523;-76
2022/08/03 01:18:37;;;;;;;8.05;4.10;;;;;;;18.27;90.14;99807.97;5034766;28;20385;-76
2022/08/03 01:21:08;;;;;;;6.13;4.30;;;;;;;18.27;90.22;99805.34;5034855;28;20017;-76
2022/08/03 01:24:11;;;;;;;6.45;4.00;;;;;;;18.24;90.91;99805.56;5034863;28;20036;-76
2022/08/03 01:26:52;;;;;;;5.05;4.07;;;;;;;18.17;90.49;99792.84;5034786;28;20075;-76
2022/08/03 01:29:45;;;;;;;6.05;4.47;;;;;;;18.16;91.11;99801.72;5034738;28;20038;-76
2022/08/03 01:32:15;;;;;;;8.57;4.60;;;;;;;18.12;91.16;99778.34;5034839;28;20028;-76
2022/08/03 01:34:45;;;;;;;7.45;4.32;;;;;;;18.12;91.50;99775.72;5034746;28;20026;-76
2022/08/03 01:37:17;;;;;;;6.32;3.85;;;;;;;18.11;91.66;99782.75;5034607;28;20076;-75
2022/08/03 01:39:44;;;;;;;5.90;4.53;;;;;;;18.15;91.58;99788.63;5034248;28;20033;-76
2022/08/03 01:42:12;;;;;;;5.68;4.43;;;;;;;18.12;91.45;99787.09;5034323;28;20029;-76
2022/08/03 01:44:41;;;;;;;5.65;4.60;;;;;;;18.13;92.35;99786.13;5034526;28;20056;-76
2022/08/03 01:47:08;;;;;;;6.38;4.80;;;;;;;18.08;92.43;99780.38;5034407;28;20021;-76
2022/08/03 01:49:38;;;;;;;5.90;4.57;;;;;;;18.04;93.42;99780.72;5034553;28;20385;-76
2022/08/03 01:52:05;;;;;;;5.50;4.80;;;;;;;17.99;92.99;99777.56;5034349;28;20017;-77
2022/08/03 01:54:36;;;;;;;5.68;4.43;;;;;;;17.95;93.17;99769.91;5033870;28;20021;-76
2022/08/03 01:57:02;;;;;;;4.75;4.10;;;;;;;18.02;93.70;99782.63;5034155;28;20026;-76
2022/08/03 01:59:29;;;;;;;5.20;4.43;;;;;;;17.97;93.75;99780.34;5034001;28;20441;-77
2022/08/03 02:01:56;;;;;;;5.05;3.88;;;;;;;17.92;93.41;99771.94;5033901;28;20029;-77
2022/08/03 02:04:24;;;;;;;7.65;4.40;;;;;;;17.91;94.40;99773.75;5033824;28;20026;-77
2022/08/03 02:06:51;;;;;;;5.53;4.30;;;;;;;17.90;94.28;99768.56;5033641;28;20100;-77
2022/08/03 02:09:19;;;;;;;4.95;4.43;;;;;;;17.85;95.24;99762.81;5034137;28;20026;-77
2022/08/03 02:11:45;;;;;;;6.63;4.50;;;;;;;17.94;94.14;99780.56;5033865;28;20030;-77
2022/08/03 02:14:13;;;;;;;9.02;4.70;;;;;;;17.97;94.44;99782.13;5034085;28;20053;-77
2022/08/03 02:16:38;;;;;;;6.30;4.50;;;;;;;18.00;94.45;99782.75;5033860;28;20037;-77
2022/08/03 02:19:06;;;;;;;7.72;4.25;;;;;;;17.99;94.62;99781.03;5033415;28;20033;-77
2022/08/03 02:21:34;;;;;;;6.85;5.13;;;;;;;17.99;95.73;99770.50;5033652;28;20065;-77
2022/08/03 02:24:00;;;;;;;6.03;4.20;;;;;;;17.97;95.31;99766.31;5033501;28;20503;-77
2022/08/03 02:26:28;;;;;;;6.20;4.45;;;;;;;18.00;95.64;99772.22;5033824;28;20025;-77
2022/08/03 02:28:56;;;;;;;6.20;4.38;;;;;;;17.98;95.48;99775.91;5033606;28;20057;-77
2022/08/03 02:31:26;;;;;;;6.05;4.55;;;;;;;17.97;96.05;99775.06;5033681;28;20488;-77
2022/08/03 02:33:55;;;;;;;5.10;4.60;;;;;;;17.94;95.27;99760.31;5033251;28;20417;-77
2022/08/03 02:36:25;;;;;;;6.78;4.78;;;;;;;18.00;95.04;99766.94;5033652;28;20026;-77
2022/08/03 02:38:57;;;;;;;5.53;4.88;;;;;;;17.99;95.21;99756.50;5033390;28;20159;-76
2022/08/03 02:41:28;;;;;;;8.52;4.55;;;;;;;18.07;95.08;99760.22;5033378;28;20479;-77
2022/08/03 02:43:56;;;;;;;4.72;4.22;;;;;;;18.04;95.21;99764.91;5033302;28;20091;-77
2022/08/03 02:46:27;;;;;;;5.15;4.63;;;;;;;18.05;95.11;99764.78;5033176;28;20028;-77
2022/08/03 02:48:54;;;;;;;6.07;4.00;;;;;;;18.11;94.76;99764.31;5033268;28;20056;-77
2022/08/03 02:51:21;;;;;;;6.10;4.97;;;;;;;18.16;95.25;99774.50;5033325;28;20029;-77
2022/08/03 02:53:47;;;;;;;7.15;4.75;;;;;;;18.18;94.54;99770.81;5033042;28;20026;-77
2022/08/03 02:56:14;;;;;;;5.82;4.80;;;;;;;18.21;94.46;99769.75;5033210;28;20430;-77
2022/08/03 02:58:42;;;;;;;5.30;4.80;;;;;;;18.18;94.70;99754.16;5032936;28;20026;-77
2022/08/03 03:01:09;;;;;;;5.10;4.45;;;;;;;18.18;94.92;99756.78;5033185;28;20037;-77
2022/08/03 03:03:35;;;;;;;5.00;4.50;;;;;;;18.18;94.46;99757.63;5033135;28;20029;-77
2022/08/03 03:06:03;;;;;;;4.93;4.43;;;;;;;18.22;94.43;99757.38;5031947;28;20088;-77
2022/08/03 03:08:28;;;;;;;4.80;4.30;;;;;;;18.25;94.74;99763.28;5032794;28;20029;-77
2022/08/03 03:10:57;;;;;;;6.07;4.43;;;;;;;18.30;94.86;99774.31;5032526;28;20036;-77
2022/08/03 03:13:23;;;;;;;7.05;4.32;;;;;;;18.25;94.68;99760.63;5032725;28;20029;-76
2022/08/03 03:15:50;;;;;;;5.18;4.68;;;;;;;18.35;94.51;99779.22;5014960;28;20037;-76
2022/08/03 03:18:16;;;;;;;5.00;4.50;;;;;;;18.32;94.52;99772.38;5032634;28;20026;-77
2022/08/03 03:20:43;;;;;;;8.82;4.30;;;;;;;18.36;94.56;99776.44;5032768;28;20040;-76
2022/08/03 03:23:09;;;;;;;7.10;4.80;;;;;;;18.38;94.54;99777.19;5032640;28;20029;-76
2022/08/03 03:25:35;;;;;;;5.30;4.68;;;;;;;18.37;94.95;99777.28;5032393;28;20458;-77
2022/08/03 03:28:01;;;;;;;8.52;4.45;;;;;;;18.35;94.78;99779.22;5032322;28;20044;-76
2022/08/03 03:30:28;;;;;;;7.93;4.90;;;;;;;18.30;95.33;99774.31;5032687;28;20056;-76
2022/08/03 03:32:54;;;;;;;5.63;4.90;;;;;;;18.31;95.91;99775.97;5032439;28;20022;-76
2022/08/03 03:35:20;;;;;;;6.00;4.95;;;;;;;18.34;95.69;99788.94;5032538;28;20029;-76
2022/08/03 03:37:46;;;;;;;5.72;4.90;;;;;;;18.28;95.84;99772.72;5032343;28;20029;-76
2022/08/03 03:40:12;;;;;;;6.35;4.85;;;;;;;18.32;95.67;99785.56;5032471;28;20085;-76
2022/08/03 03:42:38;;;;;;;11.60;4.95;;;;;;;18.24;96.72;99777.38;5032328;28;20025;-76
2022/08/03 03:45:05;;;;;;;5.20;4.70;;;;;;;18.22;97.24;99776.69;5032180;28;20038;-76
2022/08/03 03:47:30;;;;;;;5.60;4.95;;;;;;;18.16;97.04;99772.72;5032020;28;20036;-76
2022/08/03 03:49:57;;;;;;;7.00;4.57;;;;;;;18.19;97.11;99779.53;5032007;28;20026;-76
2022/08/03 03:52:22;;;;;;;5.97;5.32;;;;;;;18.23;97.89;99788.06;5032123;28;20074;-76
2022/08/03 03:54:47;;;;;;;6.35;5.57;;;;;;;18.22;97.74;99795.13;5031922;28;20037;-76
2022/08/03 03:57:13;;;;;;;6.20;5.18;;;;;;;18.15;98.20;99781.56;5032098;28;20465;-76
2022/08/03 03:59:41;;;;;;;7.68;6.32;;;;;;;18.12;98.49;99783.63;5032563;28;20033;-76
2022/08/03 04:02:08;;;;;;;6.05;5.45;;;;;;;18.12;99.68;99794.16;5031949;28;20449;-76
2022/08/03 04:12:55;;;;;;;8.18;6.60;;;;;;;17.90;100.00;99792.28;5031883;28;20039;-77
2022/08/03 04:15:22;;;;;;;7.82;6.50;;;;;;;17.89;100.00;99796.72;5031883;28;20100;-77
2022/08/03 04:17:49;;;;;;;7.88;6.90;;;;;;;17.86;100.00;99793.47;5031289;28;20029;-76
2022/08/03 04:20:17;;;;;;;7.55;6.75;;;;;;;17.83;100.00;99783.19;5031864;28;20029;-77
2022/08/03 04:22:42;;;;;;;11.02;7.72;;;;;;;17.90;100.00;99797.56;5031957;28;20033;-76
2022/08/03 04:25:13;;;;;;;7.55;6.85;;;;;;;17.86;100.00;99791.66;5031682;28;20044;-76
2022/08/03 04:27:39;;;;;;;;;;;;;;;17.88;100.00;99802.09;5032187;28;20025;-76
2022/08/03 04:30:05;;;;;;;8.65;7.72;;;;;;;17.87;100.00;99798.63;5031569;28;20283;-76
2022/08/03 04:32:31;;;;;;;7.90;6.65;;;;;;;17.91;100.00;99801.88;5031614;28;20115;-76
2022/08/03 04:34:57;;;;;;;8.98;7.25;;;;;;;17.83;100.00;99780.53;5031825;28;20057;-76
2022/08/03 04:37:37;;;;;;;8.02;6.82;;;;;;;17.94;100.00;99804.28;5032153;28;20120;-76
2022/08/03 04:40:06;;;;;;;9.88;7.70;;;;;;;17.95;100.00;99805.97;5031573;28;20029;-76
2022/08/03 04:42:33;;;;;;;9.48;7.05;;;;;;;17.98;100.00;99810.16;5032150;28;20039;-76
2022/08/03 04:45:00;;;;;;;9.95;7.15;;;;;;;18.05;100.00;99804.31;5013970;28;20029;-76
2022/08/03 04:47:26;;;;;;;8.07;7.28;;;;;;;18.23;100.00;99814.44;5031713;28;20488;-77
2022/08/03 04:49:51;;;;;;;7.00;6.30;;;;;;;18.93;100.00;99804.59;5031207;28;20029;-77
2022/08/03 04:52:17;;;;;;;8.02;6.35;;;;;;;20.47;95.97;99803.44;5031747;28;20029;-77
2022/08/03 04:54:44;;;;;;;8.55;7.03;;;;;;;21.15;87.10;99798.44;5031475;28;20026;-77
2022/08/03 04:57:10;;;;;;;7.35;6.22;;;;;;;20.79;87.78;99807.81;5031108;28;20103;-77
2022/08/03 04:59:36;;;;;;;6.80;6.20;;;;;;;20.37;88.87;99810.47;5031396;28;20022;-77
2022/08/03 05:02:01;;;;;;;6.85;6.13;;;;;;;20.37;90.19;99798.09;5031430;28;20029;-77
2022/08/03 05:04:27;;;;;;;7.28;5.95;;;;;;;20.48;89.37;99806.91;5031229;28;20026;-75
2022/08/03 05:06:52;;;;;;;6.93;5.70;;;;;;;20.36;88.76;99814.94;5031076;28;20113;-75
2022/08/03 05:09:18;;;;;;;6.43;5.20;;;;;;;20.22;89.59;99802.03;5031621;28;20052;-75
2022/08/03 05:11:43;;;;;;;6.97;5.43;;;;;;;20.37;89.56;99802.53;5031605;28;20528;-75
2022/08/03 05:14:08;;;;;;;5.88;5.38;;;;;;;21.71;85.72;99805.00;5031061;28;20049;-75
2022/08/03 05:16:34;;;;;;;8.80;5.55;;;;;;;23.34;75.88;99802.03;5031508;28;20037;-75
2022/08/03 05:18:59;;;;;;;7.28;6.57;;;;;;;24.09;69.69;99807.94;5031075;28;20025;-75
2022/08/03 05:21:25;;;;;;;6.38;5.78;;;;;;;23.77;70.49;99798.69;5031325;28;20017;-75
2022/08/03 05:23:50;;;;;;;6.20;5.15;;;;;;;23.36;71.78;99800.91;5031299;28;20160;-75
2022/08/03 05:26:15;;;;;;;8.77;5.53;;;;;;;23.47;72.41;99809.66;5031135;28;20163;-75
2022/08/03 05:28:41;;;;;;;5.68;4.97;;;;;;;23.71;71.02;99804.59;5031094;28;20033;-75
2022/08/03 05:31:06;;;;;;;6.13;5.00;;;;;;;24.21;70.75;99813.84;5033772;28;20480;-75
2022/08/03 05:33:31;;;;;;;7.55;5.88;;;;;;;24.96;66.70;99803.50;5034879;28;20026;-75
2022/08/03 05:35:58;;;;;;;8.32;5.15;;;;;;;26.43;61.17;99801.91;5034803;28;20037;-75
2022/08/03 05:38:24;;;;;;;5.55;4.93;;;;;;;27.29;57.87;99802.97;5034612;28;20531;-75
2022/08/03 05:40:49;;;;;;;9.82;5.60;;;;;;;27.48;56.80;99815.91;5034496;28;20029;-75
2022/08/03 05:43:15;;;;;;;9.23;5.00;;;;;;;27.41;56.39;99814.09;5034326;28;20038;-77
2022/08/03 05:45:41;;;;;;;5.10;4.35;;;;;;;27.47;56.56;99814.22;5034217;28;20025;-77
2022/08/03 05:48:06;;;;;;;5.55;4.60;;;;;;;26.50;56.94;99826.09;5034402;28;20406;-77
2022/08/03 05:50:31;;;;;;;6.55;4.53;;;;;;;25.36;60.57;99822.31;5034342;28;20465;-77
2022/08/03 05:52:57;;;;;;;6.20;4.72;;;;;;;24.79;63.65;99816.75;5034168;28;20116;-77
2022/08/03 05:55:22;;;;;;;9.50;4.90;;;;;;;25.87;61.18;99823.13;5034340;28;20389;-77
2022/08/03 05:57:48;;;;;;;7.03;4.47;;;;;;;26.52;58.70;99819.59;5034172;28;20083;-77
2022/08/03 06:00:14;;;;;;;6.28;4.40;;;;;;;27.18;57.59;99824.72;5034113;28;20112;-77
2022/08/03 06:02:40;;;;;;;6.10;4.05;;;;;;;27.00;57.42;99827.63;5034521;28;20034;-77
2022/08/03 06:05:06;;;;;;;11.52;4.68;;;;;;;26.97;57.46;99822.63;5034026;28;20096;-78
2022/08/03 06:07:32;;;;;;;6.82;5.05;;;;;;;26.88;56.07;99832.50;5033928;28;20072;-77
2022/08/03 06:09:57;;;;;;;7.30;4.53;;;;;;;26.81;56.50;99832.38;5033878;28;20065;-77
2022/08/03 06:12:22;;;;;;;6.70;3.78;;;;;;;27.49;56.06;99833.59;5033990;28;20033;-77
2022/08/03 06:14:48;;;;;;;5.88;5.18;;;;;;;27.51;53.74;99818.19;5034041;28;20025;-77
2022/08/03 06:17:13;;;;;;;5.53;4.32;;;;;;;27.54;53.43;99828.56;5033583;28;20064;-77
2022/08/03 06:19:39;;;;;;;8.10;4.20;;;;;;;27.33;53.57;99829.19;5033944;28;20034;-77
2022/08/03 06:22:04;;;;;;;4.78;4.38;;;;;;;27.42;53.41;99826.47;5033694;28;20056;-77
2022/08/03 06:24:30;;;;;;;5.28;3.63;;;;;;;27.91;52.71;99829.69;5033847;28;20029;-78
2022/08/03 06:26:55;;;;;;;4.05;3.65;;;;;;;28.38;52.63;99825.94;5033462;28;20036;-78
2022/08/03 06:29:20;;;;;;;4.28;3.75;;;;;;;28.78;50.48;99829.22;5033549;28;20445;-77
2022/08/03 06:31:46;;;;;;;4.97;3.55;;;;;;;28.97;50.01;99822.50;5033725;28;20025;-77
2022/08/03 06:34:11;;;;;;;4.43;3.97;;;;;;;29.18;50.11;99829.78;5033506;28;20030;-78
2022/08/03 06:36:37;;;;;;;4.35;3.95;;;;;;;29.54;47.74;99825.25;5033358;28;20033;-77
2022/08/03 06:39:03;;;;;;;7.80;5.45;;;;;;;30.16;47.69;99828.38;5042692;28;20155;-77
2022/08/03 06:41:28;;;;;;;4.82;4.10;;;;;;;30.86;46.60;99835.50;5041384;28;20061;-77
2022/08/03 06:43:54;;;;;;;4.47;3.70;;;;;;;31.59;45.48;99827.72;5052854;28;20528;-77
2022/08/03 06:46:19;;;;;;;7.80;3.42;;;;;;;32.77;44.15;99830.69;5053181;28;20025;-77
2022/08/03 06:48:45;;;;;;;3.78;3.38;;;;;;;35.07;39.50;99839.31;5053405;28;20033;-77
2022/08/03 06:51:10;;;;;;;5.50;3.60;;;;;;;38.56;33.64;99824.94;5052922;28;20468;-77
2022/08/03 06:53:36;;;;;;;3.83;3.40;;;;;;;40.15;30.02;99826.47;5053130;28;20025;-77
2022/08/03 06:56:03;;;;;;;7.57;3.72;;;;;;;40.83;29.54;99839.44;5052862;28;20167;-77
2022/08/03 06:58:29;;;;;;;4.22;3.40;;;;;;;43.65;26.42;99849.94;5052854;28;20029;-77
2022/08/03 07:00:54;;;;;;;3.85;3.55;;;;;;;44.84;24.19;99836.78;5053082;28;20610;-78
2022/08/03 07:03:19;;;;;;;6.43;3.40;;;;;;;46.55;23.02;99838.25;5052786;28;20029;-77
2022/08/03 07:05:48;;;;;;;4.07;3.38;;;;;;;46.94;21.70;99826.75;5052725;28;20127;-77
2022/08/03 07:08:14;;;;;;;5.68;3.00;;;;;;;48.30;21.20;99834.81;5052400;28;20390;-78
2022/08/03 07:10:39;;;;;;;3.35;2.80;;;;;;;49.35;20.23;99827.59;5052870;28;20041;-78
2022/08/03 07:13:05;;;;;;;5.50;3.88;;;;;;;48.29;20.11;99833.16;5052525;28;20021;-78
2022/08/03 07:15:31;;;;;;;3.22;2.75;;;;;;;49.18;20.26;99822.88;5052653;28;20534;-78
2022/08/03 07:17:56;;;;;;;3.20;2.85;;;;;;;49.90;19.49;99826.97;5052352;28;20025;-78
2022/08/03 07:20:21;;;;;;;4.13;3.08;;;;;;;50.63;18.84;99821.31;5052682;28;20082;-78
2022/08/03 07:22:47;;;;;;;3.00;2.70;;;;;;;49.47;18.73;99822.25;5052939;28;20036;-78
2022/08/03 07:25:13;;;;;;;2.80;2.60;;;;;;;50.65;18.14;99819.81;5052237;28;20035;-77
2022/08/03 07:27:43;;;;;;;3.97;2.47;;;;;;;51.62;18.17;99827.13;5052387;28;20468;-77
2022/08/03 07:30:08;;;;;;;2.92;2.70;;;;;;;51.97;17.54;99831.53;5050586;28;20037;-78
2022/08/03 07:32:34;;;;;;;2.88;2.60;;;;;;;50.48;18.24;99817.13;5047701;28;20488;-78
2022/08/03 07:35:00;;;;;;;2.92;2.60;;;;;;;50.58;18.62;99818.75;5051944;28;20079;-78
2022/08/03 07:37:25;;;;;;;5.68;2.60;;;;;;;50.63;17.77;99816.56;5052210;28;20033;-78
2022/08/03 07:39:50;;;;;;;3.45;2.72;;;;;;;49.03;18.51;99828.88;5052049;28;20028;-77
2022/08/03 07:42:16;;;;;;;3.05;2.75;;;;;;;49.32;18.92;99828.28;5051582;28;20033;-78
2022/08/03 07:44:41;;;;;;;2.58;2.35;;;;;;;51.13;17.89;99821.31;5051827;28;20024;-77
2022/08/03 07:47:07;;;;;;;7.68;3.42;;;;;;;50.18;17.74;99822.63;5051698;28;20056;-78
2022/08/03 07:49:32;;;;;;;3.20;2.30;;;;;;;50.50;18.44;99825.91;5051900;28;20630;-78
2022/08/03 07:54:42;;;;;;;4.20;2.63;;;;;;;52.70;16.68;99837.16;5035920;28;20044;-77
2022/08/03 07:57:08;;;;;;;3.22;2.53;;;;;;;53.87;16.62;99827.91;5042879;28;20028;-78
2022/08/03 07:59:34;;;;;;;4.05;2.65;;;;;;;50.71;17.08;99814.91;5051142;28;20108;-78
2022/08/03 08:01:59;;;;;;;2.90;2.70;;;;;;;50.41;17.31;99827.94;5051265;28;20129;-78
2022/08/03 08:04:25;;;;;;;3.63;2.63;;;;;;;50.47;18.42;99828.53;5051343;28;20475;-79
2022/08/03 08:06:50;;;;;;;4.15;2.53;;;;;;;50.63;18.11;99822.13;5051309;28;20021;-78
2022/08/03 08:09:15;;;;;;;2.85;2.50;;;;;;;52.56;17.36;99820.84;5051161;28;20064;-78
2022/08/03 08:11:40;;;;;;;3.22;2.83;;;;;;;53.21;16.84;99826.44;5051466;28;20021;-78
2022/08/03 08:14:06;;;;;;;2.55;2.30;;;;;;;53.86;15.12;99831.84;5051558;28;20384;-79
2022/08/03 08:16:32;;;;;;;3.05;2.40;;;;;;;54.15;15.62;99821.44;5051627;28;20465;-77
2022/08/03 08:18:57;;;;;;;2.67;2.33;;;;;;;52.95;15.91;99826.03;5051368;28;20064;-78
2022/08/03 08:21:23;;;;;;;3.70;2.40;;;;;;;53.10;16.52;99820.53;5051083;28;20025;-78
2022/08/03 08:23:48;;;;;;;4.03;2.35;;;;;;;53.69;15.94;99824.63;5033236;28;20388;-78
2022/08/03 08:26:14;;;;;;;6.00;2.92;;;;;;;50.02;17.53;99820.69;5051156;28;20052;-78
2022/08/03 08:28:39;;;;;;;3.03;2.70;;;;;;;44.37;21.28;99810.94;5051567;28;20029;-78
2022/08/03 08:31:04;;;;;;;4.65;2.58;;;;;;;41.20;24.35;99803.81;5033177;28;20032;-78
2022/08/03 08:33:30;;;;;;;8.70;2.90;;;;;;;38.95;27.34;99793.09;5032758;28;20025;-78
2022/08/03 08:35:56;;;;;;;3.75;2.78;;;;;;;36.62;30.14;99805.06;5045452;28;20032;-77
2022/08/03 08:38:22;;;;;;;3.70;3.13;;;;;;;34.97;32.30;99801.09;5050953;28;20465;-77
2022/08/03 08:40:49;;;;;;;4.13;2.85;;;;;;;33.43;35.00;99789.94;5051529;28;20449;-77
2022/08/03 08:43:14;;;;;;;3.50;2.95;;;;;;;32.74;36.41;99793.31;5051451;28;20087;-77
2022/08/03 08:45:40;;;;;;;4.18;3.38;;;;;;;31.75;38.96;99791.50;5051477;28;20021;-77
2022/08/03 08:48:08;;;;;;;6.05;3.60;;;;;;;31.39;40.17;99795.38;5051030;28;20029;-76
2022/08/03 08:50:35;;;;;;;3.67;3.20;;;;;;;31.23;41.28;99796.56;5051267;28;20086;-77
2022/08/03 08:53:02;;;;;;;7.05;3.38;;;;;;;31.43;41.34;99787.72;5050797;28;20033;-77
2022/08/03 08:55:28;;;;;;;7.43;4.00;;;;;;;31.32;39.93;99802.63;5051029;28;20471;-77
2022/08/03 08:58:00;;;;;;;7.90;3.45;;;;;;;30.72;41.45;99798.75;5051273;28;20033;-77
2022/08/03 09:00:26;;;;;;;7.72;3.33;;;;;;;30.41;42.10;99804.56;5051386;28;20111;-77
2022/08/03 09:02:51;;;;;;;7.13;3.95;;;;;;;29.94;42.89;99803.34;5044327;28;20510;-77
2022/08/03 09:05:19;;;;;;;5.53;3.35;;;;;;;29.95;42.47;99810.38;5014987;28;20459;-77
2022/08/03 09:07:46;;;;;;;4.32;3.00;;;;;;;29.76;43.85;99801.13;5035044;28;20365;-77
2022/08/03 09:10:14;;;;;;;5.82;3.97;;;;;;;29.98;43.96;99807.31;5035069;28;20029;-77
2022/08/03 09:12:45;;;;;;;5.00;3.63;;;;;;;30.03;43.66;99797.66;5035298;28;20021;-77
2022/08/03 09:15:26;;;;;;;5.05;3.10;;;;;;;29.94;43.28;99793.44;5037349;28;20033;-77
2022/08/03 09:17:55;;;;;;;3.65;3.10;;;;;;;29.89;42.70;99806.63;5052762;28;20021;-77
2022/08/03 09:20:22;;;;;;;5.38;2.80;;;;;;;29.78;42.96;99793.72;5051322;28;20062;-77
2022/08/03 09:22:55;;;;;;;3.85;2.92;;;;;;;29.96;43.96;99802.16;5053609;28;20016;-77
2022/08/03 09:25:29;;;;;;;4.32;3.40;;;;;;;30.22;43.22;99800.75;5051133;28;20028;-77
2022/08/03 09:28:05;;;;;;;5.38;3.55;;;;;;;29.79;43.71;99790.84;5053248;28;20101;-77
2022/08/03 09:30:31;;;;;;;3.17;2.88;;;;;;;29.97;44.52;99800.28;5053317;28;20559;-77
2022/08/03 09:33:08;;;;;;;9.02;3.50;;;;;;;30.20;44.10;99797.41;5053144;28;20120;-78
2022/08/03 09:35:43;;;;;;;4.20;2.72;;;;;;;30.36;42.98;99794.41;5053422;28;20037;-77
2022/08/03 09:38:12;;;;;;;5.43;2.97;;;;;;;30.44;42.71;99796.13;5053112;28;20724;-77
2022/08/03 09:40:38;;;;;;;6.90;3.53;;;;;;;30.40;43.79;99795.69;5050469;28;20057;-77
2022/08/03 09:43:06;;;;;;;4.07;3.00;;;;;;;29.92;44.32;99800.03;5052841;28;20106;-77
2022/08/03 09:45:32;;;;;;;3.08;2.80;;;;;;;29.81;45.30;99799.53;5053245;28;20021;-77
2022/08/03 09:48:23;;;;;;;5.03;2.95;;;;;;;29.93;44.35;99793.66;5052813;28;20047;-77
2022/08/03 09:50:51;;;;;;;7.38;3.45;;;;;;;29.96;44.00;99787.88;5051799;28;20046;-77
2022/08/03 09:53:18;;;;;;;3.28;2.88;;;;;;;30.04;44.70;99771.63;5052641;28;20189;-77
2022/08/03 09:56:00;;;;;;;3.40;3.08;;;;;;;30.29;45.13;99788.16;5053543;28;20040;-77
2022/08/03 09:58:27;;;;;;;4.05;3.20;;;;;;;30.39;44.77;99783.28;5054182;28;20033;-77
2022/08/03 10:01:04;;;;;;;3.30;3.00;;;;;;;30.53;42.84;99784.19;5054212;28;20040;-77
2022/08/03 10:03:31;;;;;;;3.65;3.13;;;;;;;30.55;42.54;99784.81;5054212;28;20028;-77
2022/08/03 10:05:57;;;;;;;3.60;3.30;;;;;;;30.63;43.93;99779.28;5036181;28;20400;-77
2022/08/03 10:08:23;;;;;;;7.75;3.30;;;;;;;30.39;42.42;99777.09;5053102;28;20029;-76
2022/08/03 10:10:49;;;;;;;3.70;2.83;;;;;;;30.23;43.59;99772.84;5052809;28;20025;-76
2022/08/03 10:13:17;;;;;;;2.90;2.65;;;;;;;30.27;43.14;99783.00;5053164;28;20027;-77
2022/08/03 10:15:43;;;;;;;3.60;2.50;;;;;;;30.35;42.46;99770.44;5053456;28;20494;-78
2022/08/03 10:18:08;;;;;;;3.88;2.83;;;;;;;30.37;42.78;99785.31;5053436;28;20053;-77
2022/08/03 10:20:40;;;;;;;3.95;3.10;;;;;;;30.38;41.41;99772.72;5053729;28;20025;-78
2022/08/03 10:23:07;;;;;;;3.40;2.70;;;;;;;30.35;42.68;99778.50;5053590;28;20040;-78
2022/08/03 10:25:35;;;;;;;2.80;2.60;;;;;;;30.46;43.21;99767.19;5053861;28;20059;-77
2022/08/03 10:28:03;;;;;;;5.60;2.90;;;;;;;30.27;42.85;99769.56;5053610;28;20025;-78
2022/08/03 10:30:30;;;;;;;6.68;3.10;;;;;;;30.47;44.35;99768.88;5052961;28;20029;-76
2022/08/03 10:33:04;;;;;;;3.28;2.80;;;;;;;30.43;42.75;99765.75;5047478;28;20032;-78
2022/08/03 10:35:30;;;;;;;3.20;2.90;;;;;;;30.60;43.19;99776.19;5043640;28;20033;-77
2022/08/03 10:38:02;;;;;;;3.58;2.67;;;;;;;30.37;41.02;99779.13;5053263;28;20488;-79
2022/08/03 10:40:30;;;;;;;3.55;2.90;;;;;;;30.03;42.34;99768.09;5049874;28;20041;-77
2022/08/03 10:43:02;;;;;;;2.78;2.58;;;;;;;30.00;43.60;99767.66;5051162;28;20538;-77
2022/08/03 10:45:27;;;;;;;3.05;2.83;;;;;;;30.19;43.63;99758.13;5033259;28;20444;-78
2022/08/03 10:47:55;;;;;;;4.15;3.17;;;;;;;30.31;42.19;99776.19;5033644;28;20116;-78
2022/08/03 10:50:23;;;;;;;4.00;3.10;;;;;;;30.18;42.09;99772.59;5033140;28;20033;-78
2022/08/03 10:53:05;;;;;;;4.65;2.92;;;;;;;29.86;42.73;99761.34;5045998;28;20108;-78
2022/08/03 10:58:42;;;;;;;2.78;2.58;;;;;;;30.18;42.76;99751.94;5052916;28;20044;-77
2022/08/03 11:01:10;;;;;;;4.97;3.28;;;;;;;29.93;41.76;99772.16;4991097;28;20038;-77
2022/08/03 11:03:53;;;;;;;3.83;3.33;;;;;;;29.86;41.88;99761.34;4991226;28;20520;-77
2022/08/03 11:06:20;;;;;;;3.72;2.70;;;;;;;30.02;43.78;99761.09;4990593;28;20533;-77
2022/08/03 11:08:47;;;;;;;3.20;2.72;;;;;;;30.28;42.76;99755.09;4990939;28;20114;-77
2022/08/03 11:11:18;;;;;;;5.35;2.90;;;;;;;30.51;40.74;99757.53;4990668;28;20128;-77
2022/08/03 11:14:00;;;;;;;3.05;2.75;;;;;;;30.49;40.31;99748.81;4990912;28;20164;-77
2022/08/03 11:16:26;;;;;;;5.30;2.50;;;;;;;30.51;40.98;99754.00;4989863;28;20130;-77
2022/08/03 11:18:59;;;;;;;3.35;2.83;;;;;;;30.50;41.05;99745.09;4971843;28;20131;-77
2022/08/03 11:24:36;;;;;;;5.68;2.30;;;;;;;30.82;40.22;99750.88;4971080;28;20035;-77
2022/08/03 11:27:16;;;;;;;2.80;2.60;;;;;;;30.90;41.03;99747.19;4970565;28;20045;-77
2022/08/03 11:30:08;;;;;;;2.85;2.65;;;;;;;30.84;39.29;99756.03;4971266;28;20507;-78
2022/08/03 11:32:39;;;;;;;3.15;2.53;;;;;;;30.75;39.03;99750.00;4971100;28;20134;-78
2022/08/03 11:35:26;;;;;;;3.30;2.78;;;;;;;30.80;39.32;99736.78;4976470;28;20127;-77
2022/08/03 11:38:00;;;;;;;2.78;2.58;;;;;;;30.76;40.58;99749.81;5001817;28;20037;-77
2022/08/03 11:40:43;;;;;;;3.65;2.90;;;;;;;30.93;40.17;99744.06;5039911;28;20021;-77
2022/08/03 11:43:28;;;;;;;5.03;2.78;;;;;;;30.92;39.02;99739.72;5044539;28;20580;-77
2022/08/03 11:45:59;;;;;;;4.13;2.28;;;;;;;31.02;39.88;99734.81;5049658;28;20021;-76
2022/08/03 11:48:46;;;;;;;4.15;2.40;;;;;;;31.13;38.65;99722.63;5050313;28;20451;-78
2022/08/03 11:51:22;;;;;;;3.28;2.63;;;;;;;31.22;39.33;99719.53;5048253;28;20025;-77
2022/08/03 11:54:01;;;;;;;2.53;2.30;;;;;;;31.29;38.58;99725.78;5048061;28;20056;-77
2022/08/03 11:56:27;;;;;;;2.72;2.53;;;;;;;31.35;37.88;99729.56;5047415;28;20029;-77